Time;durP1;ratioP1;P1;durP2;ratioP2;P2;SDS_P1;SDS_P2;PMS_P1;PMS_P2;Temp;Humidity;BMP_temperature;BMP_pressure;BME280_temperature;BME280_humidity;BME280_pressure;Samples;Min_cycle;Max_cycle;Signal;HPM_P1;HPM_P2
2023/06/27 00:02:02;;;;;;;3.10;1.58;;;;;;;;;;5034061;28;20025;-75
2023/06/27 00:04:28;;;;;;;3.15;1.38;;;;;;;;;;5042266;28;20041;-76
2023/06/27 00:06:54;;;;;;;3.50;1.52;;;;;;;;;;5050753;28;20041;-75
2023/06/27 00:09:19;;;;;;;3.65;1.50;;;;;;;;;;5050360;28;20403;-75
2023/06/27 00:11:44;;;;;;;3.50;1.70;;;;;;;;;;5050286;28;20171;-75
2023/06/27 00:14:10;;;;;;;4.43;1.80;;;;;;;;;;5052098;28;20029;-75
2023/06/27 00:16:36;;;;;;;3.90;1.67;;;;;;;;;;5051550;28;20107;-76
2023/06/27 00:19:04;;;;;;;5.22;1.90;;;;;;;;;;5048342;28;20080;-75
2023/06/27 00:21:34;;;;;;;4.45;1.83;;;;;;;;;;5049962;28;20028;-75
2023/06/27 00:23:59;;;;;;;7.13;1.50;;;;;;;;;;5039937;28;20378;-75
2023/06/27 00:26:27;;;;;;;4.50;1.75;;;;;;;;;;5058841;28;20050;-75
2023/06/27 00:28:52;;;;;;;2.08;1.40;;;;;;;;;;5057889;28;20024;-75
2023/06/27 00:31:18;;;;;;;4.18;1.80;;;;;;;;;;5060305;28;20111;-75
2023/06/27 00:33:43;;;;;;;4.72;1.60;;;;;;;;;;5038497;28;20127;-75
2023/06/27 00:36:09;;;;;;;4.22;1.60;;;;;;;;;;5053553;28;20021;-75
2023/06/27 00:38:35;;;;;;;5.22;1.80;;;;;;;;;;5036289;28;20058;-75
2023/06/27 00:41:01;;;;;;;4.68;1.65;;;;;;;;;;5038063;28;20012;-76
2023/06/27 00:43:29;;;;;;;4.55;1.60;;;;;;;;;;5034738;28;20738;-76
2023/06/27 00:45:55;;;;;;;4.13;1.70;;;;;;;;;;5049813;28;20025;-75
2023/06/27 00:48:21;;;;;;;3.40;1.70;;;;;;;;;;5044344;28;20060;-75
2023/06/27 00:50:49;;;;;;;4.70;1.70;;;;;;;;;;5047198;28;20035;-75
2023/06/27 00:53:14;;;;;;;4.75;1.63;;;;;;;;;;5049651;28;20047;-76
2023/06/27 00:55:41;;;;;;;4.80;1.90;;;;;;;;;;5059169;28;20495;-75
2023/06/27 00:58:08;;;;;;;4.78;1.80;;;;;;;;;;5035028;28;20024;-75
2023/06/27 01:00:34;;;;;;;3.22;1.50;;;;;;;;;;5029982;28;20527;-75
2023/06/27 01:02:59;;;;;;;2.63;1.63;;;;;;;;;;5045141;28;20112;-75
2023/06/27 01:05:25;;;;;;;4.63;1.88;;;;;;;;;;5037032;28;20060;-75
2023/06/27 01:08:07;;;;;;;7.78;2.10;;;;;;;;;;5034092;28;20032;-75
2023/06/27 01:10:44;;;;;;;5.03;1.63;;;;;;;;;;5051318;28;20568;-75
2023/06/27 01:13:29;;;;;;;3.28;1.70;;;;;;;;;;5053449;28;20150;-75
2023/06/27 01:15:57;;;;;;;4.43;1.63;;;;;;;;;;5050367;28;20031;-76
2023/06/27 01:18:25;;;;;;;4.20;1.63;;;;;;;;;;5052669;28;20029;-76
2023/06/27 01:20:51;;;;;;;4.63;1.67;;;;;;;;;;5048651;28;20017;-76
2023/06/27 01:23:26;;;;;;;4.10;1.75;;;;;;;;;;5034897;28;20053;-76
2023/06/27 01:26:04;;;;;;;6.00;2.25;;;;;;;;;;5047310;28;20103;-76
2023/06/27 01:28:31;;;;;;;3.15;1.63;;;;;;;;;;5027851;28;20031;-76
2023/06/27 01:30:57;;;;;;;4.18;1.88;;;;;;;;;;5044514;28;20049;-75
2023/06/27 01:33:42;;;;;;;4.53;1.58;;;;;;;;;;5035720;28;20507;-75
2023/06/27 01:36:42;;;;;;;4.38;1.58;;;;;;;;;;5047453;28;20036;-76
2023/06/27 01:39:12;;;;;;;4.72;1.70;;;;;;;;;;5037414;28;20029;-75
2023/06/27 01:41:40;;;;;;;3.95;1.63;;;;;;;;;;5046408;28;20047;-76
2023/06/27 01:44:06;;;;;;;6.10;1.98;;;;;;;;;;5039261;28;20175;-75
2023/06/27 01:46:33;;;;;;;4.38;1.60;;;;;;;;;;5031622;28;20083;-76
2023/06/27 01:49:01;;;;;;;5.13;1.67;;;;;;;;;;5047075;28;20603;-75
2023/06/27 01:51:26;;;;;;;5.53;1.77;;;;;;;;;;5040303;28;20063;-76
2023/06/27 01:53:51;;;;;;;4.78;1.92;;;;;;;;;;5044893;28;20049;-75
2023/06/27 01:56:17;;;;;;;5.05;1.83;;;;;;;;;;5032227;28;20029;-76
2023/06/27 01:58:42;;;;;;;4.13;1.60;;;;;;;;;;5025634;28;20023;-75
2023/06/27 02:01:08;;;;;;;3.40;1.77;;;;;;;;;;5042318;28;20027;-76
2023/06/27 02:03:34;;;;;;;4.70;2.10;;;;;;;;;;5034410;28;20025;-75
2023/06/27 02:06:00;;;;;;;3.72;1.73;;;;;;;;;;5042934;28;20099;-75
2023/06/27 02:08:25;;;;;;;5.15;2.03;;;;;;;;;;5042442;28;20072;-76
2023/06/27 02:10:51;;;;;;;4.30;1.92;;;;;;;;;;5037847;28;20099;-75
2023/06/27 02:13:16;;;;;;;4.35;1.92;;;;;;;;;;5031371;28;20037;-75
2023/06/27 02:15:41;;;;;;;5.20;2.15;;;;;;;;;;5032284;28;20035;-75
2023/06/27 02:18:07;;;;;;;5.20;2.08;;;;;;;;;;5048007;28;20469;-75
2023/06/27 02:20:32;;;;;;;6.18;2.78;;;;;;;;;;5054221;28;20099;-75
2023/06/27 02:22:57;;;;;;;4.78;1.90;;;;;;;;;;5052291;28;20078;-75
2023/06/27 02:25:23;;;;;;;4.97;2.05;;;;;;;;;;5047650;28;20477;-75
2023/06/27 02:27:49;;;;;;;3.97;1.80;;;;;;;;;;5054320;28;20047;-75
2023/06/27 02:30:14;;;;;;;5.45;1.92;;;;;;;;;;5049004;28;20031;-75
2023/06/27 02:32:40;;;;;;;3.78;1.83;;;;;;;;;;5035497;28;20020;-75
2023/06/27 02:35:06;;;;;;;5.03;2.05;;;;;;;;;;5035368;28;20048;-75
2023/06/27 02:37:31;;;;;;;5.90;2.00;;;;;;;;;;5050953;28;20025;-75
2023/06/27 02:39:57;;;;;;;4.60;1.90;;;;;;;;;;5052172;28;20473;-75
2023/06/27 02:42:22;;;;;;;3.67;1.75;;;;;;;;;;5039867;28;20032;-75
2023/06/27 02:44:48;;;;;;;5.18;2.05;;;;;;;;;;5036822;28;20093;-75
2023/06/27 02:47:14;;;;;;;9.27;2.47;;;;;;;;;;5036175;28;20075;-75
2023/06/27 02:49:42;;;;;;;4.13;1.65;;;;;;;;;;5047232;28;20963;-76
2023/06/27 02:52:07;;;;;;;6.28;2.20;;;;;;;;;;5053678;28;20696;-76
2023/06/27 02:54:33;;;;;;;6.15;2.15;;;;;;;;;;5047617;28;20378;-75
2023/06/27 02:56:58;;;;;;;4.88;1.98;;;;;;;;;;5051346;28;20020;-76
2023/06/27 02:59:24;;;;;;;6.25;2.10;;;;;;;;;;5036076;28;20040;-75
2023/06/27 03:01:49;;;;;;;4.70;2.00;;;;;;;;;;5047689;28;20028;-75
2023/06/27 03:04:20;;;;;;;5.88;2.75;;;;;;;;;;5051076;28;20021;-75
2023/06/27 03:06:45;;;;;;;5.38;1.90;;;;;;;;;;5033046;28;20497;-75
2023/06/27 03:09:11;;;;;;;8.25;2.10;;;;;;;;;;5043971;28;20123;-75
2023/06/27 03:11:36;;;;;;;7.38;2.03;;;;;;;;;;5049247;28;20378;-75
2023/06/27 03:14:02;;;;;;;6.45;2.70;;;;;;;;;;5053157;28;20039;-75
2023/06/27 03:16:27;;;;;;;5.25;2.20;;;;;;;;;;5059002;28;20024;-76
2023/06/27 03:18:52;;;;;;;6.72;2.08;;;;;;;;;;5041977;28;20032;-75
2023/06/27 03:21:19;;;;;;;7.63;2.30;;;;;;;;;;5053447;28;20013;-75
2023/06/27 03:23:44;;;;;;;6.57;2.67;;;;;;;;;;5034043;28;20474;-76
2023/06/27 03:26:10;;;;;;;5.28;2.30;;;;;;;;;;5052385;28;20029;-75
2023/06/27 03:28:35;;;;;;;5.88;2.53;;;;;;;;;;5037137;28;20412;-75
2023/06/27 03:31:00;;;;;;;4.65;2.20;;;;;;;;;;5055794;28;20021;-75
2023/06/27 03:33:26;;;;;;;5.72;2.10;;;;;;;;;;5053847;28;20112;-75
2023/06/27 03:35:51;;;;;;;4.97;2.30;;;;;;;;;;5042929;28;20075;-75
2023/06/27 03:38:17;;;;;;;8.25;2.30;;;;;;;;;;5057748;28;20499;-75
2023/06/27 03:40:43;;;;;;;9.20;2.20;;;;;;;;;;5051546;28;20028;-75
2023/06/27 03:43:12;;;;;;;5.22;2.17;;;;;;;;;;5034750;28;20029;-75
2023/06/27 03:45:38;;;;;;;4.80;2.08;;;;;;;;;;5054085;28;20025;-75
2023/06/27 03:48:04;;;;;;;7.43;2.38;;;;;;;;;;5055439;28;20020;-75
2023/06/27 03:50:32;;;;;;;6.88;2.70;;;;;;;;;;5051897;28;20120;-75
2023/06/27 03:52:57;;;;;;;8.27;2.70;;;;;;;;;;5055380;28;20071;-75
2023/06/27 03:55:22;;;;;;;7.43;2.53;;;;;;;;;;5057079;28;20111;-75
2023/06/27 03:57:49;;;;;;;6.28;2.10;;;;;;;;;;5059396;28;20377;-75
2023/06/27 04:00:14;;;;;;;4.63;2.50;;;;;;;;;;5051901;28;20542;-76
2023/06/27 04:02:40;;;;;;;4.63;2.10;;;;;;;;;;5044238;28;20124;-76
2023/06/27 04:05:06;;;;;;;5.10;2.20;;;;;;;;;;5037037;28;20025;-76
2023/06/27 04:07:31;;;;;;;5.80;2.33;;;;;;;;;;5053428;28;20056;-75
2023/06/27 04:09:56;;;;;;;7.65;2.25;;;;;;;;;;5047348;28;20065;-75
2023/06/27 04:12:22;;;;;;;6.07;2.47;;;;;;;;;;5035284;28;20032;-76
2023/06/27 04:14:47;;;;;;;7.60;2.60;;;;;;;;;;5054400;28;20033;-76
2023/06/27 04:17:13;;;;;;;7.22;2.40;;;;;;;;;;5048653;28;20120;-76
2023/06/27 04:19:38;;;;;;;8.55;2.28;;;;;;;;;;5033365;28;20036;-76
2023/06/27 04:22:04;;;;;;;5.15;2.20;;;;;;;;;;5030080;28;20024;-76
2023/06/27 04:24:29;;;;;;;5.45;2.10;;;;;;;;;;5053975;28;20024;-76
2023/06/27 04:26:54;;;;;;;5.78;2.30;;;;;;;;;;5030523;28;20469;-76
2023/06/27 04:29:20;;;;;;;4.65;2.40;;;;;;;;;;5030896;28;20021;-76
2023/06/27 04:31:45;;;;;;;5.93;2.78;;;;;;;;;;5052847;28;20029;-76
2023/06/27 04:34:11;;;;;;;5.70;2.10;;;;;;;;;;5031911;28;20543;-76
2023/06/27 04:36:40;;;;;;;7.07;2.30;;;;;;;;;;5050339;28;20761;-75
2023/06/27 04:39:07;;;;;;;6.97;2.28;;;;;;;;;;5047139;28;20110;-76
2023/06/27 04:41:32;;;;;;;5.90;2.17;;;;;;;;;;5039836;28;20048;-76
2023/06/27 04:43:59;;;;;;;6.70;2.40;;;;;;;;;;5041606;28;20460;-76
2023/06/27 04:46:28;;;;;;;8.52;2.60;;;;;;;;;;5033702;28;20029;-76
2023/06/27 04:48:57;;;;;;;6.32;2.20;;;;;;;;;;5058401;28;20481;-76
2023/06/27 04:51:32;;;;;;;5.35;2.20;;;;;;;;;;5032263;28;20029;-76
2023/06/27 04:53:57;;;;;;;7.30;2.70;;;;;;;;;;5027629;28;20473;-76
2023/06/27 04:56:23;;;;;;;7.85;2.65;;;;;;;;;;5057412;28;20025;-76
2023/06/27 04:58:48;;;;;;;6.07;2.20;;;;;;;;;;5057942;28;20551;-76
2023/06/27 05:01:14;;;;;;;7.32;2.42;;;;;;;;;;5050006;28;20080;-76
2023/06/27 05:03:39;;;;;;;7.03;2.78;;;;;;;;;;5036931;28;20107;-76
2023/06/27 05:06:05;;;;;;;7.63;2.38;;;;;;;;;;5051213;28;20052;-76
2023/06/27 05:08:32;;;;;;;8.95;2.80;;;;;;;;;;5047004;28;20528;-76
2023/06/27 05:10:57;;;;;;;7.28;2.38;;;;;;;;;;5034182;28;20079;-76
2023/06/27 05:13:23;;;;;;;7.25;2.40;;;;;;;;;;5064088;28;20029;-76
2023/06/27 05:15:48;;;;;;;7.65;2.30;;;;;;;;;;5051567;28;20141;-76
2023/06/27 05:18:16;;;;;;;6.90;2.33;;;;;;;;;;5048629;28;20436;-76
2023/06/27 05:20:42;;;;;;;5.70;2.35;;;;;;;;;;5064519;28;20108;-76
2023/06/27 05:23:08;;;;;;;6.20;2.60;;;;;;;;;;5055452;28;20064;-76
2023/06/27 05:25:33;;;;;;;7.78;2.40;;;;;;;;;;5042318;28;20071;-76
2023/06/27 05:27:59;;;;;;;7.15;2.30;;;;;;;;;;5051889;28;20115;-76
2023/06/27 05:30:26;;;;;;;7.25;2.10;;;;;;;;;;5034148;28;20032;-76
2023/06/27 05:32:51;;;;;;;7.85;2.75;;;;;;;;;;5052549;28;20501;-75
2023/06/27 05:35:16;;;;;;;8.30;2.90;;;;;;;;;;5061793;28;20012;-75
2023/06/27 05:37:42;;;;;;;7.47;2.65;;;;;;;;;;5056400;28;20059;-75
2023/06/27 05:40:08;;;;;;;7.50;2.95;;;;;;;;;;5052380;28;20373;-76
2023/06/27 05:42:34;;;;;;;5.28;2.30;;;;;;;;;;5063531;28;20108;-75
2023/06/27 05:44:59;;;;;;;6.85;2.67;;;;;;;;;;5056845;28;20041;-76
2023/06/27 05:47:25;;;;;;;5.25;2.38;;;;;;;;;;5033691;28;20032;-76
2023/06/27 05:49:52;;;;;;;7.43;3.05;;;;;;;;;;5059853;28;20032;-76
2023/06/27 05:52:17;;;;;;;8.88;3.28;;;;;;;;;;5050785;28;20044;-76
2023/06/27 05:54:42;;;;;;;6.88;3.10;;;;;;;;;;5030069;28;20017;-76
2023/06/27 05:57:08;;;;;;;10.30;3.42;;;;;;;;;;5051585;28;20028;-75
2023/06/27 05:59:33;;;;;;;8.43;3.53;;;;;;;;;;5058117;28;20059;-76
2023/06/27 06:01:58;;;;;;;9.50;3.53;;;;;;;;;;5044839;28;20083;-76
2023/06/27 06:04:24;;;;;;;11.57;3.63;;;;;;;;;;5047422;28;21622;-76
2023/06/27 06:06:49;;;;;;;8.13;3.25;;;;;;;;;;5034177;28;20045;-76
2023/06/27 06:09:15;;;;;;;9.93;3.65;;;;;;;;;;5039655;28;20028;-76
2023/06/27 06:11:40;;;;;;;11.05;3.85;;;;;;;;;;5041360;28;20103;-76
2023/06/27 06:14:05;;;;;;;10.13;3.10;;;;;;;;;;5027991;28;20044;-76
2023/06/27 06:16:33;;;;;;;10.10;3.10;;;;;;;;;;5044502;28;20025;-76
2023/06/27 06:19:02;;;;;;;7.85;3.10;;;;;;;;;;5049100;28;20021;-76
2023/06/27 06:21:28;;;;;;;6.60;2.90;;;;;;;;;;5038879;28;20029;-76
2023/06/27 06:23:53;;;;;;;10.80;3.05;;;;;;;;;;5039880;28;20116;-76
2023/06/27 06:26:19;;;;;;;18.55;4.55;;;;;;;;;;5055009;28;20107;-76
2023/06/27 06:28:44;;;;;;;8.93;2.90;;;;;;;;;;5059712;28;20047;-76
2023/06/27 06:31:16;;;;;;;9.73;3.30;;;;;;;;;;5054093;28;20040;-76
2023/06/27 06:33:42;;;;;;;10.93;3.10;;;;;;;;;;5045624;28;20029;-76
2023/06/27 06:36:07;;;;;;;7.70;2.83;;;;;;;;;;5060737;28;20498;-76
2023/06/27 06:38:33;;;;;;;7.72;2.85;;;;;;;;;;5035356;28;20044;-76
2023/06/27 06:40:58;;;;;;;8.45;2.47;;;;;;;;;;5050011;28;20466;-77
2023/06/27 06:43:25;;;;;;;7.22;2.70;;;;;;;;;;5058960;28;20031;-76
2023/06/27 06:45:51;;;;;;;7.10;2.45;;;;;;;;;;5043220;28;20499;-76
2023/06/27 06:48:16;;;;;;;9.32;2.78;;;;;;;;;;5037426;28;20465;-76
2023/06/27 06:50:42;;;;;;;8.95;2.60;;;;;;;;;;5037607;28;20040;-76
2023/06/27 06:53:07;;;;;;;6.88;2.72;;;;;;;;;;5047681;28;20021;-77
2023/06/27 06:55:32;;;;;;;7.13;2.65;;;;;;;;;;5057964;28;20392;-76
2023/06/27 06:57:58;;;;;;;6.65;2.60;;;;;;;;;;5060189;28;20036;-77
2023/06/27 07:00:23;;;;;;;8.65;2.13;;;;;;;;;;5051698;28;20117;-76
2023/06/27 07:02:48;;;;;;;5.78;2.70;;;;;;;;;;5050344;28;20033;-76
2023/06/27 07:05:14;;;;;;;8.70;2.20;;;;;;;;;;5049000;28;20028;-76
2023/06/27 07:07:39;;;;;;;5.38;2.00;;;;;;;;;;5035381;28;20029;-76
2023/06/27 07:10:05;;;;;;;6.15;2.20;;;;;;;;;;5031227;28;20025;-76
2023/06/27 07:12:31;;;;;;;4.72;1.90;;;;;;;;;;5049765;28;20028;-76
2023/06/27 07:14:57;;;;;;;4.38;1.70;;;;;;;;;;5053620;28;20047;-76
2023/06/27 07:17:22;;;;;;;6.95;1.58;;;;;;;;;;5055357;28;20029;-76
2023/06/27 07:19:48;;;;;;;6.13;1.90;;;;;;;;;;5032584;28;20037;-76
2023/06/27 07:22:13;;;;;;;5.18;1.70;;;;;;;;;;5050832;28;20415;-76
2023/06/27 07:24:39;;;;;;;6.60;1.77;;;;;;;;;;5026019;28;20491;-76
2023/06/27 07:27:05;;;;;;;4.45;1.60;;;;;;;;;;5035597;28;20024;-76
2023/06/27 07:29:31;;;;;;;6.40;2.05;;;;;;;;;;5040223;28;20056;-76
2023/06/27 07:31:56;;;;;;;7.38;1.67;;;;;;;;;;5035101;28;20063;-76
2023/06/27 07:34:22;;;;;;;6.07;1.55;;;;;;;;;;5032332;28;20547;-76
2023/06/27 07:36:47;;;;;;;4.63;1.77;;;;;;;;;;5045704;28;20032;-76
2023/06/27 07:39:13;;;;;;;4.60;1.60;;;;;;;;;;5048494;28;20067;-76
2023/06/27 07:41:38;;;;;;;7.38;1.77;;;;;;;;;;5049572;28;20116;-76
2023/06/27 07:44:04;;;;;;;3.92;1.20;;;;;;;;;;5052509;28;20029;-76
2023/06/27 07:46:29;;;;;;;5.65;1.38;;;;;;;;;;5045379;28;20063;-76
2023/06/27 07:48:59;;;;;;;3.85;1.15;;;;;;;;;;5029974;28;20444;-76
2023/06/27 07:51:25;;;;;;;5.68;1.58;;;;;;;;;;5034997;28;20136;-76
2023/06/27 07:53:50;;;;;;;4.38;1.45;;;;;;;;;;5034272;28;20498;-76
2023/06/27 07:56:16;;;;;;;4.60;1.73;;;;;;;;;;5028466;28;20063;-76
2023/06/27 07:58:43;;;;;;;3.20;1.40;;;;;;;;;;5030923;28;20025;-76
2023/06/27 08:01:08;;;;;;;2.90;1.30;;;;;;;;;;5047861;28;20492;-76
2023/06/27 08:03:34;;;;;;;6.05;1.40;;;;;;;;;;5048724;28;20024;-76
2023/06/27 08:06:03;;;;;;;3.20;1.20;;;;;;;;;;5034420;28;20059;-76
2023/06/27 08:08:29;;;;;;;3.53;1.20;;;;;;;;;;5047197;28;20029;-76
2023/06/27 08:10:56;;;;;;;3.50;1.10;;;;;;;;;;5055722;28;20027;-76
2023/06/27 08:13:24;;;;;;;4.90;1.17;;;;;;;;;;5036589;28;20026;-76
2023/06/27 08:15:50;;;;;;;4.50;1.20;;;;;;;;;;5042959;28;20029;-76
2023/06/27 08:18:15;;;;;;;2.45;1.20;;;;;;;;;;5052080;28;20037;-77
2023/06/27 08:20:41;;;;;;;1.92;0.88;;;;;;;;;;5050649;28;21415;-76
2023/06/27 08:23:07;;;;;;;3.92;1.45;;;;;;;;;;5054626;28;20024;-77
2023/06/27 08:25:33;;;;;;;4.38;1.10;;;;;;;;;;5040635;28;20024;-77
2023/06/27 08:27:58;;;;;;;3.78;1.00;;;;;;;;;;5056155;28;20033;-77
2023/06/27 08:30:26;;;;;;;5.40;1.10;;;;;;;;;;5054900;28;20063;-77
2023/06/27 08:32:52;;;;;;;4.00;1.02;;;;;;;;;;5043264;28;20115;-77
2023/06/27 08:35:18;;;;;;;2.72;1.40;;;;;;;;;;5031746;28;20453;-77
2023/06/27 08:37:43;;;;;;;3.38;1.10;;;;;;;;;;5056003;28;20150;-77
2023/06/27 08:40:09;;;;;;;4.25;1.30;;;;;;;;;;5049176;28;20605;-77
2023/06/27 08:42:35;;;;;;;4.97;1.33;;;;;;;;;;5035928;28;20032;-77
2023/06/27 08:45:01;;;;;;;3.22;0.98;;;;;;;;;;5049571;28;20032;-77
2023/06/27 08:47:29;;;;;;;4.10;1.13;;;;;;;;;;5045483;28;20022;-77
2023/06/27 08:50:05;;;;;;;4.00;1.10;;;;;;;;;;5047664;28;20413;-77
2023/06/27 08:52:38;;;;;;;4.35;1.48;;;;;;;;;;5049925;28;20132;-77
2023/06/27 08:55:06;;;;;;;4.85;1.10;;;;;;;;;;5051458;28;20021;-77
2023/06/27 08:57:34;;;;;;;2.95;1.25;;;;;;;;;;5053154;28;20029;-77
2023/06/27 09:00:11;;;;;;;3.58;1.30;;;;;;;;;;5054826;28;20028;-77
2023/06/27 09:02:38;;;;;;;3.80;1.25;;;;;;;;;;5032829;28;20029;-77
2023/06/27 09:05:04;;;;;;;4.18;1.30;;;;;;;;;;5043750;28;20120;-77
2023/06/27 09:07:30;;;;;;;3.75;1.00;;;;;;;;;;5029602;28;20449;-77
2023/06/27 09:09:55;;;;;;;4.78;1.30;;;;;;;;;;5030572;28;20155;-77
2023/06/27 09:12:22;;;;;;;4.95;1.35;;;;;;;;;;5050491;28;20028;-77
2023/06/27 09:14:48;;;;;;;4.13;1.27;;;;;;;;;;5050297;28;20159;-77
2023/06/27 09:17:14;;;;;;;3.85;1.50;;;;;;;;;;5052774;28;20028;-77
2023/06/27 09:19:39;;;;;;;5.78;1.50;;;;;;;;;;5053001;28;20025;-77
2023/06/27 09:22:05;;;;;;;2.88;1.33;;;;;;;;;;5048931;28;20024;-77
2023/06/27 09:24:31;;;;;;;5.38;1.40;;;;;;;;;;5058646;28;20044;-77
2023/06/27 09:26:57;;;;;;;4.32;1.20;;;;;;;;;;5038427;28;20025;-77
2023/06/27 09:29:30;;;;;;;2.97;1.20;;;;;;;;;;5053138;28;20039;-78
2023/06/27 09:32:06;;;;;;;4.43;1.30;;;;;;;;;;5042506;28;20240;-77
2023/06/27 09:34:34;;;;;;;3.97;1.38;;;;;;;;;;5058701;28;20021;-77
2023/06/27 09:37:03;;;;;;;3.50;1.55;;;;;;;;;;5052543;28;20025;-77
2023/06/27 09:39:28;;;;;;;3.13;1.05;;;;;;;;;;5042963;28;20028;-76
2023/06/27 09:41:54;;;;;;;6.28;1.52;;;;;;;;;;5048349;28;20443;-76
2023/06/27 09:44:21;;;;;;;3.50;1.25;;;;;;;;;;5048545;28;20508;-76
2023/06/27 09:46:49;;;;;;;3.60;1.20;;;;;;;;;;5029482;28;20035;-77
2023/06/27 09:49:15;;;;;;;3.83;1.10;;;;;;;;;;5034667;28;20025;-77
2023/06/27 09:51:44;;;;;;;4.28;1.00;;;;;;;;;;5036902;28;20029;-77
2023/06/27 09:54:13;;;;;;;3.55;1.02;;;;;;;;;;5052508;28;20471;-76
2023/06/27 09:56:39;;;;;;;3.67;1.10;;;;;;;;;;5054273;28;20480;-76
2023/06/27 09:59:11;;;;;;;4.75;1.00;;;;;;;;;;5053011;28;20123;-76
2023/06/27 10:01:38;;;;;;;2.72;1.08;;;;;;;;;;5036111;28;20019;-76
2023/06/27 10:04:04;;;;;;;2.65;0.85;;;;;;;;;;5046146;28;20444;-76
2023/06/27 10:06:31;;;;;;;3.30;1.38;;;;;;;;;;5047099;28;20025;-76
2023/06/27 10:08:57;;;;;;;2.35;0.80;;;;;;;;;;5050181;28;20025;-77
2023/06/27 10:11:23;;;;;;;4.05;0.98;;;;;;;;;;5052768;28;20481;-76
2023/06/27 10:13:49;;;;;;;5.85;1.13;;;;;;;;;;5049205;28;20112;-77
2023/06/27 10:16:16;;;;;;;5.25;1.00;;;;;;;;;;5053100;28;20456;-77
2023/06/27 10:18:42;;;;;;;3.33;1.13;;;;;;;;;;5041047;28;20155;-76
2023/06/27 10:21:09;;;;;;;2.65;0.90;;;;;;;;;;5055776;28;20025;-77
2023/06/27 10:23:35;;;;;;;3.40;0.88;;;;;;;;;;5051966;28;20017;-76
2023/06/27 10:26:01;;;;;;;3.22;1.20;;;;;;;;;;5057496;28;20070;-77
2023/06/27 10:28:30;;;;;;;2.63;0.98;;;;;;;;;;5051112;28;20033;-77
2023/06/27 10:30:56;;;;;;;2.10;0.90;;;;;;;;;;5048892;28;20021;-77
2023/06/27 10:33:29;;;;;;;2.92;0.80;;;;;;;;;;5046378;28;20025;-76
2023/06/27 10:36:01;;;;;;;3.33;0.90;;;;;;;;;;5032346;28;20477;-76
2023/06/27 10:38:36;;;;;;;;;;;;;;;;;;5053209;28;20492;-77
2023/06/27 10:41:09;;;;;;;2.00;1.00;;;;;;;;;;5032825;28;19919;-77
2023/06/27 10:43:45;;;;;;;2.55;0.93;;;;;;;;;;5054648;28;20020;-76
2023/06/27 10:46:31;;;;;;;2.95;1.00;;;;;;;;;;5029749;28;20045;-77
2023/06/27 10:49:01;;;;;;;3.85;0.80;;;;;;;;;;5037931;28;20025;-76
2023/06/27 10:52:00;;;;;;;2.05;0.80;;;;;;;;;;5034206;28;20535;-76
2023/06/27 10:54:25;;;;;;;3.17;0.95;;;;;;;;;;5030539;28;20109;-76
2023/06/27 10:56:53;;;;;;;3.47;1.10;;;;;;;;;;5037720;28;20127;-77
2023/06/27 10:59:22;;;;;;;3.60;1.10;;;;;;;;;;5051109;28;20495;-77
2023/06/27 11:02:02;;;;;;;2.50;0.82;;;;;;;;;;5051201;28;20025;-77
2023/06/27 11:04:44;;;;;;;3.40;1.10;;;;;;;;;;5033336;28;20111;-77
2023/06/27 11:07:19;;;;;;;4.43;1.00;;;;;;;;;;5052155;28;20032;-77
2023/06/27 11:09:54;;;;;;;4.20;1.10;;;;;;;;;;5052408;28;20033;-77
2023/06/27 11:12:21;;;;;;;3.38;0.95;;;;;;;;;;5031361;28;20025;-77
2023/06/27 11:14:48;;;;;;;2.17;0.77;;;;;;;;;;5051522;28;20500;-77
2023/06/27 11:17:17;;;;;;;4.80;1.30;;;;;;;;;;5052555;28;20083;-79
2023/06/27 11:19:43;;;;;;;4.22;0.90;;;;;;;;;;5052698;28;20425;-77
2023/06/27 11:22:09;;;;;;;3.40;0.90;;;;;;;;;;5035525;28;20021;-78
2023/06/27 11:24:35;;;;;;;4.95;0.90;;;;;;;;;;5054080;28;20477;-78
2023/06/27 11:27:02;;;;;;;2.22;0.80;;;;;;;;;;5053741;28;20032;-78
2023/06/27 11:29:27;;;;;;;1.80;0.73;;;;;;;;;;5033561;28;20505;-78
2023/06/27 11:31:54;;;;;;;2.33;0.80;;;;;;;;;;5050393;28;20029;-79
2023/06/27 11:34:19;;;;;;;4.55;0.90;;;;;;;;;;5034817;28;20658;-77
2023/06/27 11:36:45;;;;;;;2.60;0.80;;;;;;;;;;5051719;28;20065;-78
2023/06/27 11:39:12;;;;;;;5.13;0.70;;;;;;;;;;5055138;28;20489;-78
2023/06/27 11:41:41;;;;;;;1.75;0.63;;;;;;;;;;5052005;28;20503;-77
2023/06/27 11:44:10;;;;;;;1.05;0.70;;;;;;;;;;5039400;28;20036;-78
2023/06/27 11:46:56;;;;;;;2.08;0.80;;;;;;;;;;5034349;28;20128;-77
2023/06/27 11:49:23;;;;;;;3.03;0.70;;;;;;;;;;5054531;28;20329;-78
2023/06/27 11:51:50;;;;;;;2.55;1.00;;;;;;;;;;5031216;28;20031;-77
2023/06/27 11:54:16;;;;;;;2.45;0.90;;;;;;;;;;5050133;28;20035;-76
2023/06/27 11:56:42;;;;;;;3.35;0.80;;;;;;;;;;5052793;28;20480;-77
2023/06/27 11:59:08;;;;;;;2.55;0.77;;;;;;;;;;5055002;28;20048;-77
2023/06/27 12:02:01;;;;;;;2.40;0.70;;;;;;;;;;5055582;28;20021;-77
2023/06/27 12:04:26;;;;;;;3.20;0.95;;;;;;;;;;5032295;28;20035;-77
2023/06/27 12:06:52;;;;;;;1.85;0.90;;;;;;;;;;5035100;28;20033;-77
2023/06/27 12:09:22;;;;;;;4.95;1.08;;;;;;;;;;5052829;28;20559;-77
2023/06/27 12:11:52;;;;;;;4.18;1.65;;;;;;;;;;5045999;28;20367;-77
2023/06/27 12:14:22;;;;;;;3.00;0.93;;;;;;;;;;5035439;28;20048;-77
2023/06/27 12:16:47;;;;;;;2.72;0.80;;;;;;;;;;5043755;28;20079;-77
2023/06/27 12:19:12;;;;;;;3.30;0.80;;;;;;;;;;5052719;28;20036;-76
2023/06/27 12:21:38;;;;;;;3.67;0.90;;;;;;;;;;5056278;28;20035;-77
2023/06/27 12:24:04;;;;;;;2.15;0.82;;;;;;;;;;5063638;28;20017;-77
2023/06/27 12:26:29;;;;;;;3.28;1.02;;;;;;;;;;5038020;28;20411;-77
2023/06/27 12:29:01;;;;;;;4.05;1.10;;;;;;;;;;5052600;28;20460;-77
2023/06/27 12:31:27;;;;;;;3.83;0.93;;;;;;;;;;5038688;28;20035;-76
2023/06/27 12:33:52;;;;;;;3.00;0.90;;;;;;;;;;5057200;28;20024;-77
2023/06/27 12:36:21;;;;;;;4.00;0.90;;;;;;;;;;5063677;28;20469;-78
2023/06/27 12:38:47;;;;;;;3.97;1.02;;;;;;;;;;5041557;28;20518;-77
2023/06/27 12:41:12;;;;;;;3.30;1.00;;;;;;;;;;5071044;28;20049;-77
2023/06/27 12:43:37;;;;;;;3.83;0.95;;;;;;;;;;5036862;28;20032;-77
2023/06/27 12:46:04;;;;;;;2.95;1.10;;;;;;;;;;5053714;28;20017;-77
2023/06/27 12:48:29;;;;;;;3.72;1.17;;;;;;;;;;5058504;28;20020;-77
2023/06/27 12:50:55;;;;;;;3.83;1.23;;;;;;;;;;5057048;28;20040;-77
2023/06/27 12:53:20;;;;;;;4.15;0.98;;;;;;;;;;5053815;28;20032;-77
2023/06/27 12:55:46;;;;;;;3.25;0.93;;;;;;;;;;5060577;28;20122;-78
2023/06/27 12:58:11;;;;;;;4.03;1.17;;;;;;;;;;5063899;28;20488;-77
2023/06/27 13:00:38;;;;;;;2.85;0.95;;;;;;;;;;5063125;28;20056;-78
2023/06/27 13:03:06;;;;;;;7.20;1.20;;;;;;;;;;5035673;28;20037;-78
2023/06/27 13:05:32;;;;;;;4.38;1.20;;;;;;;;;;5047076;28;20017;-77
2023/06/27 13:07:57;;;;;;;4.00;1.10;;;;;;;;;;5036409;28;20547;-77
2023/06/27 13:10:25;;;;;;;4.20;1.42;;;;;;;;;;5054843;28;20051;-77
2023/06/27 13:12:51;;;;;;;3.72;1.20;;;;;;;;;;5059581;28;20075;-77
2023/06/27 13:15:17;;;;;;;3.83;1.05;;;;;;;;;;5055925;28;20020;-78
2023/06/27 13:17:43;;;;;;;6.80;1.40;;;;;;;;;;5039528;28;20063;-77
2023/06/27 13:20:09;;;;;;;2.67;1.10;;;;;;;;;;5051338;28;20741;-77
2023/06/27 13:22:35;;;;;;;3.47;1.08;;;;;;;;;;5035136;28;20032;-77
2023/06/27 13:25:00;;;;;;;6.68;1.50;;;;;;;;;;5050077;28;20442;-77
2023/06/27 13:27:26;;;;;;;7.43;1.10;;;;;;;;;;5055430;28;20493;-77
2023/06/27 13:29:52;;;;;;;4.55;1.17;;;;;;;;;;5053781;28;20025;-77
2023/06/27 13:32:17;;;;;;;2.17;1.02;;;;;;;;;;5057964;28;20043;-77
2023/06/27 13:34:43;;;;;;;2.85;1.17;;;;;;;;;;5053014;28;20725;-77
2023/06/27 13:37:08;;;;;;;5.20;1.55;;;;;;;;;;5057476;28;20032;-77
2023/06/27 13:39:34;;;;;;;3.85;1.10;;;;;;;;;;5034443;28;20035;-77
2023/06/27 13:41:59;;;;;;;3.65;1.00;;;;;;;;;;5034569;28;20036;-77
2023/06/27 13:44:25;;;;;;;3.80;0.90;;;;;;;;;;5050607;28;20104;-77
2023/06/27 13:46:50;;;;;;;3.53;1.13;;;;;;;;;;5041242;28;20079;-77
2023/06/27 13:49:15;;;;;;;3.15;1.00;;;;;;;;;;5059123;28;20028;-77
2023/06/27 13:51:41;;;;;;;5.10;1.45;;;;;;;;;;5048696;28;20107;-77
2023/06/27 13:54:06;;;;;;;2.95;1.10;;;;;;;;;;5031721;28;20569;-77
2023/06/27 13:56:32;;;;;;;3.47;1.10;;;;;;;;;;5044015;28;20017;-78
2023/06/27 13:58:59;;;;;;;3.45;1.05;;;;;;;;;;5030762;28;20021;-78
2023/06/27 14:01:26;;;;;;;3.90;1.13;;;;;;;;;;5018225;28;20094;-77
2023/06/27 14:03:51;;;;;;;5.22;1.27;;;;;;;;;;5039447;28;20617;-77
2023/06/27 14:06:16;;;;;;;3.90;1.17;;;;;;;;;;5051578;28;20107;-77
2023/06/27 14:08:42;;;;;;;2.28;0.90;;;;;;;;;;5028662;28;20377;-77
2023/06/27 14:11:14;;;;;;;4.72;0.90;;;;;;;;;;5048491;28;20097;-77
2023/06/27 14:13:43;;;;;;;4.05;1.17;;;;;;;;;;5031525;28;20112;-78
2023/06/27 14:16:09;;;;;;;3.08;1.00;;;;;;;;;;5039333;28;20041;-77
2023/06/27 14:18:35;;;;;;;3.28;0.90;;;;;;;;;;5035366;28;20021;-77
2023/06/27 14:21:07;;;;;;;4.13;1.17;;;;;;;;;;5051795;28;20135;-78
2023/06/27 14:23:34;;;;;;;3.95;1.08;;;;;;;;;;5052822;28;20028;-77
2023/06/27 14:25:59;;;;;;;2.97;0.90;;;;;;;;;;5035501;28;20032;-78
2023/06/27 14:28:24;;;;;;;3.40;0.88;;;;;;;;;;5037426;28;20400;-77
2023/06/27 14:30:50;;;;;;;3.13;0.80;;;;;;;;;;5035570;28;20033;-77
2023/06/27 14:33:20;;;;;;;3.85;1.00;;;;;;;;;;5033191;28;20036;-78
2023/06/27 14:35:49;;;;;;;3.20;0.88;;;;;;;;;;5043416;28;20386;-78
2023/06/27 14:38:15;;;;;;;3.92;0.90;;;;;;;;;;5052811;28;20107;-78
2023/06/27 14:40:40;;;;;;;2.35;0.85;;;;;;;;;;5036895;28;20114;-78
2023/06/27 14:43:06;;;;;;;2.80;0.88;;;;;;;;;;5054822;28;20080;-77